AMX653 MMUN-MGGT
Flight info
| Callsign | AMX653 |
|---|---|
| Flight time | 0h 53m |
| Altitude | 34000 |
| Route | ALSUP1C ALSUP UT51 ANEPU DCT RIDEM UG765 AUR DCT |
| Aircraft | B738/M-V/N |
Departure
| Time | 2026-04-30 21:41 |
|---|---|
| Airport | Cancún International Airport (MMUN) |
Arrival
| Time | 2026-04-30 22:34 |
|---|---|
| Airport | La Aurora International Airport (MGGT) |
| Time | Latitude | Longitude | Altitude | Speed | Heading |
|---|---|---|---|---|---|
| 2026-04-30 21:22 | 21.03933 | -86.87682 | 25 ft | 0 kts | 33° |
| 2026-04-30 21:30 | 21.03925 | -86.87688 | 25 ft | 2 kts | 33° |
| 2026-04-30 21:31 | 21.03888 | -86.87713 | 25 ft | 0 kts | 32° |
| 2026-04-30 21:31 | 21.03864 | -86.87716 | 25 ft | 2 kts | 328° |
| 2026-04-30 21:32 | 21.03854 | -86.87704 | 25 ft | 0 kts | 303° |
| 2026-04-30 21:35 | 21.03864 | -86.87720 | 25 ft | 7 kts | 302° |
| 2026-04-30 21:35 | 21.03893 | -86.87766 | 25 ft | 7 kts | 303° |
| 2026-04-30 21:35 | 21.03932 | -86.87829 | 25 ft | 14 kts | 303° |
| 2026-04-30 21:35 | 21.03992 | -86.87925 | 25 ft | 14 kts | 303° |
| 2026-04-30 21:36 | 21.04046 | -86.88011 | 26 ft | 12 kts | 303° |
| 2026-04-30 21:36 | 21.04090 | -86.88081 | 27 ft | 10 kts | 304° |
| 2026-04-30 21:37 | 21.04256 | -86.88345 | 31 ft | 18 kts | 303° |
| 2026-04-30 21:37 | 21.04325 | -86.88457 | 33 ft | 16 kts | 303° |
| 2026-04-30 21:37 | 21.04390 | -86.88560 | 35 ft | 18 kts | 303° |
| 2026-04-30 21:37 | 21.04465 | -86.88681 | 36 ft | 18 kts | 303° |
| 2026-04-30 21:38 | 21.04537 | -86.88796 | 36 ft | 18 kts | 303° |
| 2026-04-30 21:38 | 21.04605 | -86.88902 | 36 ft | 16 kts | 303° |
| 2026-04-30 21:38 | 21.04631 | -86.89001 | 37 ft | 12 kts | 244° |
| 2026-04-30 21:38 | 21.04559 | -86.89066 | 35 ft | 15 kts | 214° |
| 2026-04-30 21:39 | 21.04499 | -86.89047 | 34 ft | 0 kts | 120° |
| 2026-04-30 21:40 | 21.04498 | -86.89046 | 34 ft | 0 kts | 122° |
| 2026-04-30 21:40 | 21.04437 | -86.88947 | 34 ft | 49 kts | 124° |
| 2026-04-30 21:40 | 21.04110 | -86.88425 | 30 ft | 120 kts | 124° |
| 2026-04-30 21:41 | 21.03531 | -86.87500 | 65 ft | 172 kts | 127° |
| 2026-04-30 21:41 | 21.02844 | -86.86388 | 723 ft | 179 kts | 123° |
| 2026-04-30 21:41 | 21.02204 | -86.85331 | 1655 ft | 171 kts | 127° |
| 2026-04-30 21:41 | 21.01368 | -86.84366 | 2151 ft | 189 kts | 139° |
| 2026-04-30 21:42 | 21.00280 | -86.83572 | 2856 ft | 194 kts | 156° |
| 2026-04-30 21:42 | 20.98956 | -86.83209 | 3512 ft | 204 kts | 169° |
| 2026-04-30 21:42 | 20.97539 | -86.82938 | 4210 ft | 212 kts | 167° |
| 2026-04-30 21:42 | 20.96052 | -86.82596 | 4814 ft | 225 kts | 166° |
| 2026-04-30 21:43 | 20.94490 | -86.82213 | 5380 ft | 239 kts | 165° |
| 2026-04-30 21:43 | 20.92844 | -86.81811 | 5952 ft | 252 kts | 166° |
| 2026-04-30 21:43 | 20.91046 | -86.81430 | 6467 ft | 269 kts | 172° |
| 2026-04-30 21:43 | 20.89115 | -86.81492 | 7006 ft | 288 kts | 189° |
| 2026-04-30 21:44 | 20.87187 | -86.82011 | 7963 ft | 289 kts | 193° |
| 2026-04-30 21:44 | 20.85236 | -86.82591 | 8658 ft | 297 kts | 192° |
| 2026-04-30 21:44 | 20.83222 | -86.83141 | 9396 ft | 303 kts | 191° |
| 2026-04-30 21:44 | 20.81137 | -86.83670 | 10156 ft | 307 kts | 191° |
| 2026-04-30 21:45 | 20.79046 | -86.84189 | 10901 ft | 311 kts | 190° |
| 2026-04-30 21:45 | 20.76937 | -86.84708 | 11595 ft | 316 kts | 191° |
| 2026-04-30 21:45 | 20.74792 | -86.85239 | 12281 ft | 321 kts | 191° |
| 2026-04-30 21:45 | 20.72615 | -86.85777 | 12971 ft | 325 kts | 191° |
| 2026-04-30 21:46 | 20.70371 | -86.86330 | 13377 ft | 338 kts | 191° |
| 2026-04-30 21:46 | 20.68040 | -86.86905 | 13776 ft | 350 kts | 191° |
| 2026-04-30 21:46 | 20.65606 | -86.87508 | 14338 ft | 357 kts | 191° |
| 2026-04-30 21:46 | 20.63183 | -86.88110 | 15027 ft | 359 kts | 191° |
| 2026-04-30 21:47 | 20.60740 | -86.88715 | 15714 ft | 361 kts | 192° |
| 2026-04-30 21:47 | 20.58294 | -86.89322 | 16310 ft | 365 kts | 192° |
| 2026-04-30 21:47 | 20.55815 | -86.89935 | 16974 ft | 366 kts | 192° |
| 2026-04-30 21:47 | 20.53344 | -86.90542 | 17531 ft | 370 kts | 192° |
| 2026-04-30 21:48 | 20.50786 | -86.91056 | 18040 ft | 375 kts | 187° |
| 2026-04-30 21:48 | 20.48134 | -86.91307 | 18126 ft | 393 kts | 181° |
| 2026-04-30 21:48 | 20.45320 | -86.91324 | 18404 ft | 404 kts | 178° |
| 2026-04-30 21:48 | 20.42461 | -86.91252 | 18640 ft | 416 kts | 178° |
| 2026-04-30 21:49 | 20.39561 | -86.91170 | 19188 ft | 419 kts | 178° |
| 2026-04-30 21:49 | 20.36642 | -86.91109 | 19617 ft | 425 kts | 178° |
| 2026-04-30 21:49 | 20.33672 | -86.91065 | 20151 ft | 427 kts | 179° |
| 2026-04-30 21:49 | 20.30663 | -86.91028 | 20567 ft | 433 kts | 179° |
| 2026-04-30 21:50 | 20.27638 | -86.90997 | 21090 ft | 434 kts | 179° |
| 2026-04-30 21:50 | 20.24617 | -86.90968 | 21494 ft | 439 kts | 179° |
| 2026-04-30 21:50 | 20.21563 | -86.90939 | 21955 ft | 441 kts | 179° |
| 2026-04-30 21:50 | 20.18444 | -86.90909 | 22365 ft | 445 kts | 179° |
| 2026-04-30 21:51 | 20.15348 | -86.90881 | 22816 ft | 448 kts | 179° |
| 2026-04-30 21:51 | 20.12192 | -86.90852 | 23180 ft | 452 kts | 179° |
| 2026-04-30 21:51 | 20.09064 | -86.90823 | 23605 ft | 455 kts | 179° |
| 2026-04-30 21:51 | 20.05891 | -86.90795 | 24024 ft | 457 kts | 179° |
| 2026-04-30 21:52 | 20.02646 | -86.90775 | 24370 ft | 462 kts | 180° |
| 2026-04-30 21:52 | 19.99430 | -86.90777 | 24772 ft | 465 kts | 180° |
| 2026-04-30 21:52 | 19.96205 | -86.90789 | 25206 ft | 466 kts | 180° |
| 2026-04-30 21:52 | 19.92970 | -86.90804 | 25670 ft | 466 kts | 180° |
| 2026-04-30 21:53 | 19.89710 | -86.90818 | 26222 ft | 464 kts | 180° |
| 2026-04-30 21:53 | 19.86463 | -86.90829 | 26716 ft | 464 kts | 180° |
| 2026-04-30 21:53 | 19.83225 | -86.90839 | 27101 ft | 465 kts | 180° |
| 2026-04-30 21:53 | 19.80001 | -86.90848 | 27610 ft | 463 kts | 180° |
| 2026-04-30 21:54 | 19.76771 | -86.90855 | 28008 ft | 464 kts | 180° |
| 2026-04-30 21:54 | 19.73553 | -86.90866 | 28469 ft | 462 kts | 180° |
| 2026-04-30 21:54 | 19.70367 | -86.91050 | 28904 ft | 461 kts | 186° |
| 2026-04-30 21:54 | 19.67216 | -86.91682 | 29333 ft | 460 kts | 196° |
| 2026-04-30 21:55 | 19.64213 | -86.92834 | 29706 ft | 458 kts | 206° |
| 2026-04-30 21:55 | 19.61416 | -86.94479 | 30038 ft | 457 kts | 215° |
| 2026-04-30 21:55 | 19.58830 | -86.96435 | 30392 ft | 457 kts | 219° |
| 2026-04-30 21:55 | 19.56305 | -86.98541 | 30382 ft | 465 kts | 221° |
| 2026-04-30 21:56 | 19.53761 | -87.00714 | 30494 ft | 471 kts | 221° |
| 2026-04-30 21:56 | 19.51226 | -87.02856 | 30963 ft | 468 kts | 220° |
| 2026-04-30 21:56 | 19.48662 | -87.04984 | 31350 ft | 467 kts | 220° |
| 2026-04-30 21:56 | 19.46113 | -87.07060 | 31677 ft | 467 kts | 219° |
| 2026-04-30 21:57 | 19.43509 | -87.09155 | 31986 ft | 467 kts | 219° |
| 2026-04-30 21:57 | 19.40922 | -87.11216 | 32321 ft | 466 kts | 219° |
| 2026-04-30 21:57 | 19.38320 | -87.13274 | 32650 ft | 466 kts | 219° |
| 2026-04-30 21:57 | 19.35716 | -87.15322 | 32911 ft | 466 kts | 219° |
| 2026-04-30 21:58 | 19.33116 | -87.17360 | 33235 ft | 465 kts | 219° |
| 2026-04-30 21:58 | 19.30515 | -87.19393 | 33657 ft | 463 kts | 219° |
| 2026-04-30 21:58 | 19.27940 | -87.21403 | 33827 ft | 465 kts | 219° |
| 2026-04-30 21:58 | 19.25318 | -87.23449 | 33847 ft | 471 kts | 219° |
| 2026-04-30 21:59 | 19.19955 | -87.27631 | 33847 ft | 483 kts | 219° |
| 2026-04-30 22:00 | 19.11780 | -87.33987 | 33848 ft | 488 kts | 219° |
| 2026-04-30 22:00 | 19.03560 | -87.40364 | 33846 ft | 488 kts | 219° |
| 2026-04-30 22:01 | 18.98101 | -87.44595 | 33844 ft | 490 kts | 219° |
| 2026-04-30 22:01 | 18.92600 | -87.48860 | 33846 ft | 491 kts | 219° |
| 2026-04-30 22:02 | 18.87047 | -87.53158 | 33851 ft | 492 kts | 219° |
| 2026-04-30 22:02 | 18.81550 | -87.57407 | 33847 ft | 493 kts | 219° |
| 2026-04-30 22:03 | 18.75994 | -87.61701 | 33847 ft | 494 kts | 219° |
| 2026-04-30 22:03 | 18.70434 | -87.65994 | 33842 ft | 494 kts | 218° |
| 2026-04-30 22:04 | 18.64908 | -87.70255 | 33844 ft | 494 kts | 218° |
| 2026-04-30 22:05 | 18.56559 | -87.76688 | 33833 ft | 495 kts | 218° |
| 2026-04-30 22:05 | 18.51030 | -87.80944 | 33830 ft | 495 kts | 218° |
| 2026-04-30 22:06 | 18.45466 | -87.85227 | 33827 ft | 495 kts | 218° |
| 2026-04-30 22:06 | 18.37113 | -87.91647 | 33823 ft | 495 kts | 218° |
| 2026-04-30 22:07 | 18.31557 | -87.95905 | 33826 ft | 496 kts | 217° |
| 2026-04-30 22:07 | 18.25945 | -88.00140 | 33833 ft | 496 kts | 217° |
| 2026-04-30 22:08 | 18.16794 | -88.07004 | 33841 ft | 495 kts | 217° |
| 2026-04-30 22:08 | 18.05563 | -88.15438 | 33841 ft | 495 kts | 217° |
| 2026-04-30 22:09 | 17.94339 | -88.23859 | 33834 ft | 495 kts | 217° |
| 2026-04-30 22:09 | 17.70340 | -88.41846 | 33829 ft | 495 kts | 217° |
| 2026-04-30 22:10 | 17.46704 | -88.59508 | 33813 ft | 496 kts | 217° |
| 2026-04-30 22:10 | 17.41061 | -88.63696 | 33813 ft | 496 kts | 217° |
| 2026-04-30 22:11 | 17.32637 | -88.69951 | 33809 ft | 497 kts | 217° |
| 2026-04-30 22:12 | 17.26984 | -88.74149 | 33801 ft | 495 kts | 216° |
| 2026-04-30 22:12 | 17.16734 | -88.81757 | 33852 ft | 496 kts | 216° |
| 2026-04-30 22:13 | 16.62000 | -89.22224 | 33866 ft | 497 kts | 216° |
| 2026-04-30 22:13 | 16.56346 | -89.26386 | 33854 ft | 497 kts | 216° |
| 2026-04-30 22:14 | 16.50703 | -89.30537 | 33851 ft | 497 kts | 216° |
| 2026-04-30 22:14 | 16.45053 | -89.34691 | 33848 ft | 497 kts | 216° |
| 2026-04-30 22:15 | 16.39411 | -89.38836 | 33840 ft | 497 kts | 216° |
| 2026-04-30 22:15 | 16.33762 | -89.42982 | 33836 ft | 497 kts | 216° |
| 2026-04-30 22:16 | 16.28091 | -89.47144 | 33837 ft | 495 kts | 216° |
| 2026-04-30 22:17 | 16.16805 | -89.55414 | 33813 ft | 497 kts | 215° |
| 2026-04-30 22:17 | 16.08308 | -89.61633 | 33790 ft | 496 kts | 215° |
| 2026-04-30 22:18 | 16.05493 | -89.63691 | 33687 ft | 499 kts | 215° |
| 2026-04-30 22:18 | 15.99788 | -89.67861 | 32561 ft | 502 kts | 215° |
| 2026-04-30 22:19 | 15.94097 | -89.72018 | 31399 ft | 495 kts | 215° |
| 2026-04-30 22:19 | 15.91314 | -89.74049 | 30829 ft | 492 kts | 214° |
| 2026-04-30 22:19 | 15.85688 | -89.78155 | 29677 ft | 494 kts | 214° |
| 2026-04-30 22:20 | 15.82892 | -89.80195 | 29111 ft | 496 kts | 214° |
| 2026-04-30 22:20 | 15.77207 | -89.84338 | 27999 ft | 498 kts | 214° |
| 2026-04-30 22:20 | 15.74390 | -89.86391 | 27459 ft | 500 kts | 214° |
| 2026-04-30 22:21 | 15.71553 | -89.88457 | 26917 ft | 502 kts | 214° |
| 2026-04-30 22:21 | 15.68677 | -89.90552 | 26368 ft | 504 kts | 214° |
| 2026-04-30 22:21 | 15.65811 | -89.92638 | 25828 ft | 505 kts | 214° |
| 2026-04-30 22:21 | 15.62911 | -89.94747 | 25281 ft | 506 kts | 214° |
| 2026-04-30 22:22 | 15.60039 | -89.96831 | 24741 ft | 507 kts | 213° |
| 2026-04-30 22:22 | 15.57072 | -89.98840 | 24192 ft | 504 kts | 210° |
| 2026-04-30 22:22 | 15.54114 | -90.00681 | 23652 ft | 499 kts | 208° |
| 2026-04-30 22:22 | 15.51083 | -90.02489 | 23090 ft | 494 kts | 208° |
| 2026-04-30 22:23 | 15.48106 | -90.04243 | 22542 ft | 491 kts | 207° |
| 2026-04-30 22:23 | 15.45166 | -90.05981 | 21999 ft | 488 kts | 207° |
| 2026-04-30 22:23 | 15.27509 | -90.16489 | 18969 ft | 480 kts | 208° |
| 2026-04-30 22:23 | 15.24707 | -90.18201 | 18681 ft | 467 kts | 209° |
| 2026-04-30 22:24 | 15.21933 | -90.19923 | 18309 ft | 448 kts | 209° |
| 2026-04-30 22:24 | 15.19326 | -90.21545 | 17965 ft | 430 kts | 209° |
| 2026-04-30 22:24 | 15.16818 | -90.23101 | 17618 ft | 413 kts | 209° |
| 2026-04-30 22:24 | 15.14393 | -90.24596 | 17303 ft | 396 kts | 209° |
| 2026-04-30 22:25 | 15.12078 | -90.26019 | 17157 ft | 376 kts | 208° |
| 2026-04-30 22:25 | 15.09895 | -90.27354 | 17007 ft | 357 kts | 208° |
| 2026-04-30 22:25 | 15.07785 | -90.28643 | 16875 ft | 337 kts | 208° |
| 2026-04-30 22:25 | 15.05820 | -90.29839 | 16746 ft | 316 kts | 208° |
| 2026-04-30 22:26 | 15.02261 | -90.32004 | 16394 ft | 280 kts | 207° |
| 2026-04-30 22:26 | 15.00591 | -90.33015 | 15911 ft | 278 kts | 208° |
| 2026-04-30 22:26 | 14.98911 | -90.34029 | 15275 ft | 282 kts | 208° |
| 2026-04-30 22:27 | 14.97240 | -90.35040 | 14744 ft | 279 kts | 208° |
| 2026-04-30 22:27 | 14.95565 | -90.36056 | 14229 ft | 277 kts | 209° |
| 2026-04-30 22:27 | 14.92268 | -90.38055 | 13199 ft | 272 kts | 210° |
| 2026-04-30 22:28 | 14.89044 | -90.40011 | 12176 ft | 267 kts | 210° |
| 2026-04-30 22:28 | 14.87467 | -90.40968 | 11679 ft | 264 kts | 210° |
| 2026-04-30 22:29 | 14.82786 | -90.43810 | 10168 ft | 255 kts | 208° |
| 2026-04-30 22:29 | 14.81283 | -90.44682 | 9995 ft | 237 kts | 206° |
| 2026-04-30 22:30 | 14.75478 | -90.47137 | 9329 ft | 220 kts | 197° |
| 2026-04-30 22:31 | 14.71226 | -90.48579 | 8437 ft | 212 kts | 197° |
| 2026-04-30 22:32 | 14.67084 | -90.49985 | 7387 ft | 202 kts | 197° |
| 2026-04-30 22:32 | 14.64522 | -90.50832 | 6623 ft | 184 kts | 195° |
| 2026-04-30 22:33 | 14.61195 | -90.51824 | 5540 ft | 150 kts | 197° |
| 2026-04-30 22:33 | 14.59279 | -90.52441 | 4939 ft | 138 kts | 197° |
| 2026-04-30 22:34 | 14.58020 | -90.52895 | 4888 ft | 8 kts | 290° |